Time;durP1;ratioP1;P1;durP2;ratioP2;P2;SDS_P1;SDS_P2;PMS_P1;PMS_P2;Temp;Humidity;BMP_temperature;BMP_pressure;BME280_temperature;BME280_humidity;BME280_pressure;Samples;Min_cycle;Max_cycle;Signal;HPM_P1;HPM_P2
2021/03/24 00:00:45;;;;;;;95.28;49.92;;;6.00;91.10;;;;;;5094444;28;20094;-81
2021/03/24 00:03:12;;;;;;;104.55;57.38;;;6.00;90.80;;;;;;5077260;28;20436;-80
2021/03/24 00:05:42;;;;;;;96.13;53.70;;;5.90;90.70;;;;;;5077776;28;20016;-80
2021/03/24 00:08:08;;;;;;;106.43;60.60;;;5.90;90.70;;;;;;5078019;28;20059;-80
2021/03/24 00:10:37;;;;;;;102.20;56.42;;;5.90;90.80;;;;;;5077540;28;20397;-80
2021/03/24 00:13:04;;;;;;;103.03;54.08;;;5.90;90.90;;;;;;5076739;28;20107;-80
2021/03/24 00:15:30;;;;;;;97.68;56.25;;;5.90;90.90;;;;;;5076312;28;20030;-81
2021/03/24 00:17:56;;;;;;;103.65;54.45;;;5.90;90.70;;;;;;5076137;28;20433;-81
2021/03/24 00:20:26;;;;;;;98.82;54.35;;;5.90;90.70;;;;;;5094491;28;20439;-82
2021/03/24 00:22:52;;;;;;;100.05;55.10;;;5.80;90.80;;;;;;5094546;28;20024;-81
2021/03/24 00:25:19;;;;;;;108.13;56.83;;;5.80;90.70;;;;;;5076195;28;20483;-81
2021/03/24 00:27:47;;;;;;;102.53;54.45;;;5.80;90.80;;;;;;5076084;28;20024;-81
2021/03/24 00:30:17;;;;;;;114.07;57.45;;;5.80;90.80;;;;;;5076268;28;20016;-81
2021/03/24 00:32:42;;;;;;;102.60;54.95;;;5.80;91.00;;;;;;5075999;28;20012;-81
2021/03/24 00:35:09;;;;;;;111.45;55.20;;;5.80;91.00;;;;;;5075705;28;20464;-80
2021/03/24 00:37:35;;;;;;;110.53;59.90;;;5.80;90.90;;;;;;5076134;28;20348;-80
2021/03/24 00:40:02;;;;;;;110.40;58.33;;;5.80;91.00;;;;;;5093710;28;20514;-81
2021/03/24 00:42:27;;;;;;;107.68;56.78;;;5.80;91.10;;;;;;5093974;28;20035;-81
2021/03/24 00:44:53;;;;;;;105.60;56.22;;;5.70;91.10;;;;;;5075410;28;20073;-81
2021/03/24 00:47:18;;;;;;;109.05;56.63;;;5.70;91.00;;;;;;5075806;28;20016;-81
2021/03/24 00:49:44;;;;;;;103.13;57.70;;;5.70;91.00;;;;;;5093888;28;20020;-81
2021/03/24 00:52:10;;;;;;;107.22;57.67;;;5.70;91.30;;;;;;5094319;28;20463;-81
2021/03/24 00:54:35;;;;;;;111.80;57.05;;;5.70;91.20;;;;;;5094021;28;20024;-82
2021/03/24 00:57:01;;;;;;;122.35;59.55;;;5.70;91.20;;;;;;5075378;28;20047;-81
2021/03/24 00:59:27;;;;;;;122.05;59.55;;;5.70;91.20;;;;;;5075904;28;20047;-81
2021/03/24 01:01:52;;;;;;;118.47;62.90;;;5.70;91.20;;;;;;5075353;28;20027;-81
2021/03/24 01:04:18;;;;;;;127.55;62.45;;;5.60;91.20;;;;;;5075517;28;20122;-81
2021/03/24 01:06:43;;;;;;;98.93;54.28;;;5.60;91.30;;;;;;5075764;28;20027;-81
2021/03/24 01:09:09;;;;;;;108.05;55.85;;;5.60;91.30;;;;;;5093741;28;20148;-80
2021/03/24 01:11:39;;;;;;;124.35;63.38;;;5.60;91.10;;;;;;5092524;28;20532;-81
2021/03/24 01:14:07;;;;;;;110.80;57.50;;;5.60;91.10;;;;;;5075062;28;20032;-80
2021/03/24 01:16:33;;;;;;;113.05;58.10;;;5.50;91.20;;;;;;5075151;28;20019;-80
2021/03/24 01:18:59;;;;;;;118.97;59.13;;;5.50;91.20;;;;;;5074924;28;20504;-80
2021/03/24 01:21:24;;;;;;;119.30;60.10;;;5.50;91.50;;;;;;5075073;28;20027;-81
2021/03/24 01:23:50;;;;;;;113.70;59.50;;;5.50;91.50;;;;;;5074534;28;20440;-81
2021/03/24 01:26:17;;;;;;;101.25;56.92;;;5.50;91.40;;;;;;5075047;28;20020;-81
2021/03/24 01:28:42;;;;;;;103.05;56.42;;;5.50;91.50;;;;;;5075016;28;20016;-81
2021/03/24 01:31:08;;;;;;;115.75;57.42;;;5.50;91.40;;;;;;5074978;28;20404;-81
2021/03/24 01:33:34;;;;;;;128.55;63.63;;;5.40;91.30;;;;;;5075002;28;20349;-81
2021/03/24 01:36:00;;;;;;;120.43;60.92;;;5.40;91.30;;;;;;5074928;28;20016;-81
2021/03/24 01:38:26;;;;;;;128.65;61.45;;;5.40;91.50;;;;;;5075085;28;20023;-81
2021/03/24 01:40:59;;;;;;;123.78;60.55;;;5.40;91.60;;;;;;5074842;28;20016;-81
2021/03/24 01:43:31;;;;;;;134.77;63.70;;;5.40;91.60;;;;;;5075056;28;20020;-80
2021/03/24 01:46:16;;;;;;;108.57;55.35;;;5.30;91.60;;;;;;5075129;28;20048;-80
2021/03/24 01:48:42;;;;;;;104.53;57.30;;;5.30;91.60;;;;;;5075764;28;20444;-80
2021/03/24 01:51:08;;;;;;;110.90;54.95;;;5.30;91.50;;;;;;5074383;28;20094;-81
2021/03/24 01:53:35;;;;;;;116.70;59.13;;;5.30;91.50;;;;;;5092991;28;20031;-81
2021/03/24 01:56:01;;;;;;;119.72;60.03;;;5.30;91.50;;;;;;5074432;28;20031;-81
2021/03/24 01:58:28;;;;;;;119.45;61.13;;;5.20;91.70;;;;;;5092669;28;20313;-81
2021/03/24 02:00:54;;;;;;;133.00;64.53;;;5.20;91.60;;;;;;5074481;28;20099;-81
2021/03/24 02:03:25;;;;;;;120.75;60.67;;;5.20;91.70;;;;;;5074338;28;20012;-81
2021/03/24 02:05:52;;;;;;;117.15;58.10;;;5.20;91.80;;;;;;5074077;28;20355;-80
2021/03/24 02:08:25;;;;;;;110.03;54.00;;;5.20;91.70;;;;;;5092449;28;20040;-80
2021/03/24 02:11:06;;;;;;;105.03;53.30;;;5.10;91.60;;;;;;5074042;28;20072;-80
2021/03/24 02:13:57;;;;;;;112.53;56.42;;;5.10;91.70;;;;;;5074404;28;20480;-81
2021/03/24 02:16:25;;;;;;;137.57;63.60;;;5.10;91.60;;;;;;5062901;28;20039;-81
2021/03/24 02:18:53;;;;;;;123.93;59.08;;;5.10;91.60;;;;;;5092186;28;20032;-81
2021/03/24 02:21:26;;;;;;;126.07;61.10;;;5.10;91.80;;;;;;5074173;28;20096;-81
2021/03/24 02:24:06;;;;;;;127.22;60.17;;;5.10;91.80;;;;;;5074025;28;20024;-81
2021/03/24 02:27:09;;;;;;;120.22;57.53;;;5.10;91.90;;;;;;5092274;28;20020;-81
2021/03/24 02:29:43;;;;;;;119.75;58.10;;;5.10;91.80;;;;;;5092457;28;20012;-81
2021/03/24 02:32:13;;;;;;;123.40;58.75;;;5.00;91.70;;;;;;5092004;28;20026;-81
2021/03/24 02:34:41;;;;;;;118.85;58.85;;;5.00;91.90;;;;;;5074367;28;20468;-81
2021/03/24 02:37:08;;;;;;;128.15;62.22;;;5.00;91.90;;;;;;5074282;28;20035;-81
2021/03/24 02:39:34;;;;;;;123.78;60.78;;;4.90;92.00;;;;;;5092298;28;20016;-80
2021/03/24 02:42:03;;;;;;;138.45;63.30;;;4.90;92.00;;;;;;5073990;28;20020;-81
2021/03/24 02:44:29;;;;;;;125.75;59.88;;;4.90;92.10;;;;;;5092178;28;20020;-80
2021/03/24 02:46:57;;;;;;;132.35;62.60;;;4.90;92.60;;;;;;5073953;28;20016;-80
2021/03/24 02:49:25;;;;;;;116.55;57.92;;;4.90;92.60;;;;;;5092330;28;20360;-80
2021/03/24 02:51:51;;;;;;;120.50;58.42;;;5.00;92.50;;;;;;5074142;28;20077;-81
2021/03/24 02:54:21;;;;;;;114.15;57.17;;;5.00;92.60;;;;;;5074051;28;20035;-81
2021/03/24 02:56:47;;;;;;;128.13;58.55;;;5.00;92.20;;;;;;5074259;28;20073;-80
2021/03/24 02:59:16;;;;;;;118.13;60.30;;;4.90;92.00;;;;;;5094518;28;20035;-80
2021/03/24 03:02:06;;;;;;;124.53;57.50;;;4.90;92.00;;;;;;5077974;28;20012;-80
2021/03/24 03:04:41;;;;;;;114.25;57.13;;;4.90;92.10;;;;;;5078272;28;20020;-80
2021/03/24 03:07:20;;;;;;;125.53;57.38;;;4.90;92.00;;;;;;5077558;28;20020;-79
2021/03/24 03:09:50;;;;;;;121.35;57.15;;;4.90;92.00;;;;;;5077520;28;20036;-79
2021/03/24 03:12:28;;;;;;;;;;;4.90;92.00;;;;;;5077689;28;20085;-79
2021/03/24 03:15:23;;;;;;;118.05;56.15;;;4.90;92.20;;;;;;5077272;28;19908;-80
2021/03/24 03:17:54;;;;;;;125.05;59.33;;;4.90;92.10;;;;;;5077683;28;20086;-80
2021/03/24 03:20:31;;;;;;;138.60;61.90;;;4.80;92.10;;;;;;5077548;28;20444;-80
2021/03/24 03:23:07;;;;;;;125.68;61.03;;;4.80;92.30;;;;;;5095485;28;20205;-80
2021/03/24 03:25:37;;;;;;;148.77;66.70;;;4.90;92.50;;;;;;5077263;28;20016;-80
2021/03/24 03:28:09;;;;;;;152.77;67.73;;;4.90;93.00;;;;;;5095212;28;20040;-80
2021/03/24 03:30:37;;;;;;;152.25;70.63;;;5.00;93.10;;;;;;5095424;28;20368;-81
2021/03/24 03:33:07;;;;;;;143.02;69.53;;;5.10;93.30;;;;;;5077042;28;20019;-81
2021/03/24 03:35:34;;;;;;;142.83;67.50;;;5.10;93.30;;;;;;5077386;28;20046;-82
2021/03/24 03:38:03;;;;;;;147.02;69.65;;;5.20;93.40;;;;;;5077095;28;20254;-80
2021/03/24 03:40:33;;;;;;;136.00;66.47;;;5.20;93.40;;;;;;5077060;28;20045;-80
2021/03/24 03:43:00;;;;;;;136.38;63.90;;;5.20;93.50;;;;;;5094789;28;20448;-79
2021/03/24 03:45:25;;;;;;;143.52;70.65;;;5.30;93.50;;;;;;5077152;28;20024;-80
2021/03/24 03:47:52;;;;;;;140.45;65.95;;;5.30;93.50;;;;;;5077169;28;20469;-81
2021/03/24 03:50:21;;;;;;;133.55;64.30;;;5.30;93.40;;;;;;5094972;28;20055;-80
2021/03/24 03:53:10;;;;;;;129.95;65.07;;;5.30;93.20;;;;;;5076810;28;20073;-80
2021/03/24 03:56:05;;;;;;;130.98;63.70;;;5.30;92.90;;;;;;5076827;28;20028;-80
2021/03/24 03:58:30;;;;;;;125.53;63.88;;;5.30;92.90;;;;;;5067196;28;20510;-80
2021/03/24 04:01:06;;;;;;;137.48;65.97;;;5.20;92.70;;;;;;5076508;28;20100;-79
2021/03/24 04:03:52;;;;;;;147.80;67.82;;;5.20;92.70;;;;;;5078690;28;20023;-79
2021/03/24 04:06:23;;;;;;;132.63;62.33;;;5.10;93.10;;;;;;5077610;28;20105;-80
2021/03/24 04:08:51;;;;;;;139.05;64.10;;;5.10;92.80;;;;;;5072660;28;20043;-81
2021/03/24 04:11:21;;;;;;;135.05;62.63;;;5.10;93.00;;;;;;5073200;28;20036;-81
2021/03/24 04:13:53;;;;;;;131.32;63.58;;;5.10;92.80;;;;;;5073085;28;20464;-80
2021/03/24 04:16:18;;;;;;;125.70;59.75;;;5.00;92.80;;;;;;5073101;28;20021;-80
2021/03/24 04:19:01;;;;;;;121.45;60.42;;;5.00;92.60;;;;;;5074735;28;20017;-81
2021/03/24 04:21:29;;;;;;;122.90;59.70;;;5.00;92.30;;;;;;5074448;28;20016;-81
2021/03/24 04:24:07;;;;;;;120.55;59.95;;;4.90;92.30;;;;;;5073443;28;20021;-82
2021/03/24 04:26:48;;;;;;;138.88;62.53;;;4.90;92.20;;;;;;5072454;28;20012;-81
2021/03/24 04:29:38;;;;;;;120.38;57.78;;;4.80;92.10;;;;;;5073884;28;20102;-81
2021/03/24 04:32:06;;;;;;;139.55;63.47;;;4.80;92.10;;;;;;5064224;28;20037;-81
2021/03/24 04:34:32;;;;;;;126.47;63.40;;;4.80;92.20;;;;;;5072728;28;20514;-81
2021/03/24 04:37:12;;;;;;;125.38;59.03;;;4.70;92.60;;;;;;5073055;28;20021;-81
2021/03/24 04:39:42;;;;;;;126.22;59.05;;;4.70;92.60;;;;;;5075011;28;20448;-81
2021/03/24 04:42:14;;;;;;;118.93;59.22;;;4.70;92.40;;;;;;5073808;28;20020;-81
2021/03/24 04:44:41;;;;;;;115.05;56.45;;;4.70;92.20;;;;;;5072473;28;20020;-80
2021/03/24 04:47:20;;;;;;;134.70;61.35;;;4.60;92.20;;;;;;5072200;28;20029;-81
2021/03/24 04:50:15;;;;;;;126.43;57.72;;;4.60;92.30;;;;;;5072088;28;20024;-80
2021/03/24 04:52:40;;;;;;;118.88;56.97;;;4.60;92.20;;;;;;5072381;28;20017;-80
2021/03/24 04:55:12;;;;;;;146.85;68.97;;;4.60;92.20;;;;;;5071899;28;20036;-79
2021/03/24 04:57:38;;;;;;;136.48;67.43;;;4.60;92.70;;;;;;5072147;28;20020;-80
2021/03/24 05:00:29;;;;;;;141.25;65.20;;;4.70;93.00;;;;;;5072387;28;20016;-79
2021/03/24 05:03:00;;;;;;;126.05;61.03;;;4.70;93.00;;;;;;5057610;28;20025;-80
2021/03/24 05:05:30;;;;;;;119.70;61.58;;;4.70;92.90;;;;;;5072334;28;20040;-79
2021/03/24 05:08:12;;;;;;;127.07;61.60;;;4.70;92.90;;;;;;5073098;28;20074;-80
2021/03/24 05:10:37;;;;;;;132.27;64.82;;;4.70;92.70;;;;;;5075447;28;20567;-80
2021/03/24 05:13:25;;;;;;;121.55;60.90;;;4.70;92.70;;;;;;5075575;28;20023;-81
2021/03/24 05:16:27;;;;;;;124.18;57.38;;;4.70;92.90;;;;;;5075303;28;20024;-81
2021/03/24 05:18:55;;;;;;;123.97;62.50;;;4.80;93.00;;;;;;5072846;28;20118;-80
2021/03/24 05:21:46;;;;;;;119.45;59.53;;;4.80;92.90;;;;;;5071818;28;20143;-80
2021/03/24 05:24:14;;;;;;;122.85;60.25;;;4.80;92.90;;;;;;5072001;28;20032;-80
2021/03/24 05:26:45;;;;;;;114.82;61.88;;;4.80;92.80;;;;;;5074007;28;20023;-81
2021/03/24 05:29:18;;;;;;;116.82;57.72;;;4.80;92.80;;;;;;5092657;28;20024;-80
2021/03/24 05:31:47;;;;;;;116.82;59.95;;;4.80;92.70;;;;;;5074917;28;20012;-80
2021/03/24 05:34:22;;;;;;;110.05;56.60;;;4.80;92.70;;;;;;5074690;28;20444;-80
2021/03/24 05:36:49;;;;;;;109.38;57.47;;;4.80;92.70;;;;;;5093486;28;20376;-81
2021/03/24 05:39:30;;;;;;;116.30;59.60;;;4.80;92.60;;;;;;5093173;28;20020;-81
2021/03/24 05:42:34;;;;;;;112.60;58.03;;;4.80;92.40;;;;;;5074869;28;20023;-81
2021/03/24 05:45:29;;;;;;;111.47;58.28;;;4.80;92.20;;;;;;5044413;28;20040;-79
2021/03/24 05:48:06;;;;;;;117.25;57.08;;;4.80;92.10;;;;;;5075195;28;20024;-79
2021/03/24 05:51:03;;;;;;;116.85;57.53;;;4.80;92.00;;;;;;5093072;28;20097;-79
2021/03/24 05:54:00;;;;;;;110.25;55.20;;;4.80;92.10;;;;;;5074888;28;20016;-80
2021/03/24 05:57:03;;;;;;;105.03;55.20;;;4.80;92.00;;;;;;5074595;28;20027;-80
2021/03/24 05:59:56;;;;;;;103.75;53.72;;;4.80;91.90;;;;;;5073634;28;20024;-80
2021/03/24 06:02:41;;;;;;;107.57;53.75;;;4.80;91.90;;;;;;5074264;28;20020;-81
2021/03/24 06:05:34;;;;;;;113.18;58.97;;;4.80;91.70;;;;;;5074498;28;20016;-81
2021/03/24 06:08:25;;;;;;;113.20;55.90;;;4.80;91.70;;;;;;5036690;28;20028;-80
2021/03/24 06:10:57;;;;;;;107.03;58.33;;;4.80;91.80;;;;;;5074790;28;20028;-80
2021/03/24 06:14:11;;;;;;;108.22;56.15;;;4.90;92.00;;;;;;5074088;28;20013;-81
2021/03/24 06:17:10;;;;;;;109.95;56.70;;;4.90;92.00;;;;;;5057208;28;20119;-81
2021/03/24 06:20:21;;;;;;;103.55;54.08;;;5.00;91.90;;;;;;5033727;28;20028;-81
2021/03/24 06:22:49;;;;;;;116.50;57.78;;;5.10;91.80;;;;;;5070289;28;20028;-80
2021/03/24 06:25:26;;;;;;;111.00;56.83;;;5.20;91.90;;;;;;5074586;28;20020;-81
2021/03/24 06:28:14;;;;;;;103.85;55.78;;;5.20;92.20;;;;;;5074268;28;20157;-80
2021/03/24 06:31:12;;;;;;;105.30;57.90;;;5.30;91.80;;;;;;5074299;28;20020;-80
2021/03/24 06:34:20;;;;;;;107.68;55.63;;;5.40;91.50;;;;;;5036586;28;20032;-80
2021/03/24 06:37:14;;;;;;;104.05;56.40;;;5.40;91.40;;;;;;5078440;28;20020;-81
2021/03/24 06:39:42;;;;;;;96.63;51.92;;;5.60;91.40;;;;;;5078225;28;20107;-80
2021/03/24 06:42:35;;;;;;;92.28;48.63;;;5.70;91.30;;;;;;5077905;28;20375;-80
2021/03/24 06:45:13;;;;;;;99.68;53.10;;;5.80;91.00;;;;;;5096486;28;20020;-80
2021/03/24 06:47:53;;;;;;;96.45;53.60;;;5.80;90.80;;;;;;5078148;28;20028;-80
2021/03/24 06:51:00;;;;;;;97.15;55.03;;;6.00;90.70;;;;;;5078823;28;20112;-79
2021/03/24 06:54:03;;;;;;;94.40;51.88;;;6.10;90.40;;;;;;5077905;28;20072;-77
2021/03/24 06:56:37;;;;;;;93.18;50.22;;;6.30;90.00;;;;;;5078638;28;20016;-79
2021/03/24 06:59:43;;;;;;;99.30;52.63;;;6.40;89.60;;;;;;5097331;28;20024;-79
2021/03/24 07:02:48;;;;;;;95.57;50.20;;;6.40;89.20;;;;;;5096204;28;20023;-81
2021/03/24 07:05:37;;;;;;;92.45;52.60;;;6.50;88.90;;;;;;5077936;28;20028;-80
2021/03/24 07:08:41;;;;;;;92.60;49.88;;;6.60;87.80;;;;;;5077281;28;20024;-80
2021/03/24 07:11:09;;;;;;;90.10;49.53;;;6.70;87.60;;;;;;5095522;28;20051;-80
2021/03/24 07:13:52;;;;;;;83.20;48.72;;;6.90;86.70;;;;;;5095598;28;20019;-81
2021/03/24 07:16:21;;;;;;;88.15;51.13;;;6.90;86.50;;;;;;5077650;28;20024;-79
2021/03/24 07:19:14;;;;;;;83.05;47.60;;;7.00;85.00;;;;;;5077859;28;20024;-80
2021/03/24 07:21:58;;;;;;;88.53;48.67;;;7.10;85.50;;;;;;5077523;28;20023;-80
2021/03/24 07:24:49;;;;;;;85.25;49.08;;;7.20;85.20;;;;;;5077192;28;20098;-79
2021/03/24 07:27:39;;;;;;;77.38;47.40;;;7.30;85.40;;;;;;5095839;28;20016;-80
2021/03/24 07:30:29;;;;;;;72.97;42.47;;;7.40;85.60;;;;;;5078480;28;20100;-79
2021/03/24 07:32:58;;;;;;;;;;;7.60;85.00;;;;;;5096702;28;20016;-80
2021/03/24 07:35:54;;;;;;;79.85;45.97;;;7.70;84.10;;;;;;5079553;28;19903;-79
2021/03/24 07:39:01;;;;;;;90.88;51.47;;;7.80;83.10;;;;;;5079343;28;20078;-81
2021/03/24 07:42:12;;;;;;;88.80;48.75;;;7.90;82.90;;;;;;5079368;28;20290;-80
2021/03/24 07:44:49;;;;;;;78.63;46.65;;;8.10;82.60;;;;;;5096330;28;20028;-79
2021/03/24 07:47:37;;;;;;;83.63;50.80;;;8.20;82.10;;;;;;5091873;28;20449;-80
2021/03/24 07:50:11;;;;;;;86.88;50.63;;;8.30;79.60;;;;;;5070672;28;20064;-79
2021/03/24 07:53:15;;;;;;;85.28;51.15;;;8.30;81.20;;;;;;5076804;28;20024;-80
2021/03/24 07:55:44;;;;;;;86.28;49.42;;;8.50;80.90;;;;;;5076190;28;20043;-80
2021/03/24 07:58:33;;;;;;;80.07;47.70;;;8.60;81.00;;;;;;5074790;28;20038;-80
2021/03/24 08:01:21;;;;;;;75.95;44.22;;;8.80;79.80;;;;;;5077427;28;20012;-79
2021/03/24 08:04:08;;;;;;;89.57;48.55;;;8.90;79.90;;;;;;5096151;28;20019;-81
2021/03/24 08:06:56;;;;;;;81.50;47.67;;;9.00;79.70;;;;;;5078906;28;20028;-80
2021/03/24 08:09:41;;;;;;;69.30;36.35;;;9.20;77.90;;;;;;5078714;28;20085;-81
2021/03/24 08:12:15;;;;;;;79.07;47.22;;;9.30;79.60;;;;;;5095511;28;20024;-80
2021/03/24 08:15:00;;;;;;;84.90;50.95;;;9.40;80.50;;;;;;5077598;28;20024;-79
2021/03/24 08:17:49;;;;;;;85.55;48.53;;;9.50;76.60;;;;;;5076556;28;20016;-80
2021/03/24 08:20:18;;;;;;;74.95;43.55;;;9.70;76.70;;;;;;5077652;28;20107;-78
2021/03/24 08:23:16;;;;;;;75.05;43.65;;;9.90;76.50;;;;;;5095985;28;20016;-80
2021/03/24 08:26:04;;;;;;;75.45;45.10;;;10.20;77.60;;;;;;5078026;28;20103;-79
2021/03/24 08:28:57;;;;;;;73.40;45.15;;;10.40;76.70;;;;;;5094891;28;20023;-81
2021/03/24 08:32:05;;;;;;;79.60;46.83;;;10.70;74.90;;;;;;5076100;28;20024;-80
2021/03/24 08:34:49;;;;;;;77.75;46.92;;;10.80;73.80;;;;;;5094040;28;20334;-81
2021/03/24 08:37:18;;;;;;;88.78;51.97;;;11.10;73.20;;;;;;5075812;28;20080;-79
2021/03/24 08:40:28;;;;;;;81.30;48.30;;;11.10;70.50;;;;;;5076720;28;20016;-80
2021/03/24 08:43:27;;;;;;;80.50;47.95;;;11.20;71.10;;;;;;5051334;28;20056;-81
2021/03/24 08:46:04;;;;;;;75.27;44.10;;;11.20;70.40;;;;;;5058892;28;20056;-81
2021/03/24 08:48:52;;;;;;;71.00;42.30;;;11.40;70.30;;;;;;5075754;28;20016;-81
2021/03/24 08:51:29;;;;;;;78.90;48.67;;;11.60;72.20;;;;;;5076020;28;20118;-81
2021/03/24 08:54:20;;;;;;;79.75;49.58;;;11.60;69.30;;;;;;5094036;28;20028;-80
2021/03/24 08:57:06;;;;;;;83.40;49.80;;;11.60;69.10;;;;;;5093278;28;20020;-79
2021/03/24 08:59:49;;;;;;;66.47;36.88;;;11.80;70.30;;;;;;5075541;28;20016;-80
2021/03/24 09:02:44;;;;;;;78.95;49.30;;;11.90;72.60;;;;;;5075658;28;20034;-80
2021/03/24 09:05:21;;;;;;;86.30;48.97;;;12.00;67.10;;;;;;5093550;28;20016;-80
2021/03/24 09:08:25;;;;;;;81.50;47.15;;;12.10;68.50;;;;;;5075342;28;20023;-80
2021/03/24 09:10:56;;;;;;;75.57;46.30;;;12.40;68.10;;;;;;5053256;28;20181;-80
2021/03/24 09:13:34;;;;;;;75.53;45.13;;;12.60;67.10;;;;;;5075145;28;20369;-80
2021/03/24 09:16:20;;;;;;;80.22;49.10;;;12.80;68.40;;;;;;5093323;28;20028;-81
2021/03/24 09:19:11;;;;;;;77.53;49.30;;;13.00;64.90;;;;;;5074944;28;20024;-79
2021/03/24 09:22:04;;;;;;;81.03;50.97;;;13.20;64.00;;;;;;5075032;28;20016;-80
2021/03/24 09:25:12;;;;;;;82.15;50.85;;;13.40;64.70;;;;;;5093265;28;20024;-80
2021/03/24 09:27:59;;;;;;;85.07;48.78;;;13.40;63.50;;;;;;5075125;28;20371;-80
2021/03/24 09:30:34;;;;;;;84.13;50.92;;;13.40;64.00;;;;;;5092685;28;20038;-81
2021/03/24 09:33:14;;;;;;;86.47;50.63;;;13.70;63.70;;;;;;5074505;28;20086;-80
2021/03/24 09:36:18;;;;;;;85.45;51.38;;;13.80;63.30;;;;;;5074981;28;20024;-80
2021/03/24 09:38:47;;;;;;;73.25;41.55;;;13.80;61.40;;;;;;5074879;28;20023;-80
2021/03/24 09:41:18;;;;;;;81.65;49.28;;;13.90;65.70;;;;;;5074876;28;20127;-80
2021/03/24 09:44:09;;;;;;;80.43;50.05;;;13.90;62.60;;;;;;5082515;28;20023;-80
2021/03/24 09:46:50;;;;;;;82.35;48.80;;;14.00;62.00;;;;;;5054324;28;20032;-78
2021/03/24 09:49:24;;;;;;;74.80;47.10;;;14.20;61.00;;;;;;5072185;28;20021;-78
2021/03/24 09:52:18;;;;;;;71.07;44.03;;;14.30;62.70;;;;;;5054688;28;20407;-79
2021/03/24 09:55:08;;;;;;;85.30;50.97;;;14.20;64.30;;;;;;5054667;28;20024;-79
2021/03/24 09:58:15;;;;;;;73.32;43.88;;;14.40;61.50;;;;;;5054005;28;20063;-80
2021/03/24 10:01:07;;;;;;;78.28;47.63;;;14.70;65.90;;;;;;5034390;28;20028;-78
2021/03/24 10:03:37;;;;;;;74.32;46.53;;;15.00;59.80;;;;;;5025533;28;20077;-78
2021/03/24 10:07:17;;;;;;;74.43;43.92;;;15.20;56.20;;;;;;5090299;28;20360;-79
2021/03/24 10:10:10;;;;;;;74.20;45.55;;;15.20;58.10;;;;;;5089687;28;20110;-79
2021/03/24 10:12:42;;;;;;;74.50;46.40;;;15.20;57.60;;;;;;5088837;28;20071;-80
2021/03/24 10:15:24;;;;;;;79.47;46.50;;;15.40;58.10;;;;;;5090679;28;20020;-79
2021/03/24 10:17:55;;;;;;;71.68;45.58;;;15.60;57.50;;;;;;5090157;28;20012;-80
2021/03/24 10:20:27;;;;;;;73.75;47.33;;;15.90;56.00;;;;;;5088337;28;20024;-79
2021/03/24 10:22:55;;;;;;;74.10;47.72;;;16.30;55.60;;;;;;5088244;28;20338;-79
2021/03/24 10:25:34;;;;;;;72.68;48.13;;;16.40;55.80;;;;;;5087951;28;20028;-80
2021/03/24 10:28:05;;;;;;;68.97;42.47;;;16.60;54.50;;;;;;5089495;28;20020;-79
2021/03/24 10:30:37;;;;;;;52.63;32.67;;;16.80;55.70;;;;;;5089400;28;20213;-80
2021/03/24 10:33:23;;;;;;;67.70;44.58;;;16.80;63.90;;;;;;5087968;28;20352;-79
2021/03/24 10:36:22;;;;;;;57.30;35.55;;;17.00;58.60;;;;;;5089373;28;20091;-79
2021/03/24 10:39:00;;;;;;;64.85;40.45;;;17.00;52.10;;;;;;5088038;28;20461;-80
2021/03/24 10:41:42;;;;;;;65.35;42.60;;;16.90;50.60;;;;;;5089083;28;20021;-80
2021/03/24 10:44:12;;;;;;;55.13;33.72;;;17.00;50.90;;;;;;5074323;28;20025;-80
2021/03/24 10:46:51;;;;;;;60.40;35.88;;;17.10;56.20;;;;;;5067389;28;20021;-80
2021/03/24 10:49:27;;;;;;;59.33;35.88;;;17.30;53.10;;;;;;5068944;28;20028;-80
2021/03/24 10:52:18;;;;;;;65.75;38.22;;;17.30;55.60;;;;;;5067832;28;20416;-80
2021/03/24 10:54:53;;;;;;;64.60;35.45;;;17.10;53.80;;;;;;5068997;28;20028;-80
2021/03/24 10:57:29;;;;;;;60.10;37.42;;;16.90;54.90;;;;;;5066916;28;20487;-78
2021/03/24 11:00:09;;;;;;;53.25;34.35;;;16.90;51.70;;;;;;5068380;28;20461;-78
2021/03/24 11:02:45;;;;;;;55.55;32.95;;;16.80;54.50;;;;;;5068108;28;20462;-78
2021/03/24 11:05:22;;;;;;;53.30;31.90;;;16.80;53.40;;;;;;5067785;28;20474;-78
2021/03/24 11:07:56;;;;;;;58.78;35.55;;;17.10;54.30;;;;;;5066960;28;20039;-79
2021/03/24 11:10:57;;;;;;;47.28;28.45;;;17.30;52.10;;;;;;5068255;28;20048;-78
2021/03/24 11:13:34;;;;;;;47.53;30.30;;;17.30;58.10;;;;;;5067834;28;20040;-78
2021/03/24 11:16:29;;;;;;;56.55;36.10;;;17.30;57.30;;;;;;5067921;28;20058;-78
2021/03/24 11:19:06;;;;;;;53.80;32.80;;;17.60;51.00;;;;;;5053487;28;20474;-78
2021/03/24 11:21:59;;;;;;;53.17;33.03;;;17.70;53.30;;;;;;5054617;28;20060;-78
2021/03/24 11:24:41;;;;;;;53.38;32.78;;;17.80;52.80;;;;;;5054524;28;20037;-78
2021/03/24 11:27:14;;;;;;;58.30;35.08;;;17.90;51.70;;;;;;5053723;28;20410;-79
2021/03/24 11:29:51;;;;;;;49.60;31.08;;;17.90;49.30;;;;;;5064154;28;20013;-79
2021/03/24 11:32:22;;;;;;;41.45;23.88;;;17.90;50.10;;;;;;5073235;28;20032;-79
2021/03/24 11:35:13;;;;;;;44.42;27.60;;;18.10;57.70;;;;;;5074124;28;20457;-79
2021/03/24 11:37:56;;;;;;;55.95;30.17;;;18.30;53.50;;;;;;5073964;28;20220;-79
2021/03/24 11:40:41;;;;;;;36.70;23.00;;;18.50;52.20;;;;;;5072411;28;20017;-79
2021/03/24 11:43:15;;;;;;;50.20;31.40;;;18.70;54.30;;;;;;5068874;28;20017;-80
2021/03/24 11:45:44;;;;;;;49.67;28.95;;;18.70;48.90;;;;;;5074325;28;20039;-80
2021/03/24 11:48:28;;;;;;;41.28;26.88;;;18.50;50.10;;;;;;5072623;28;20116;-80
2021/03/24 11:50:57;;;;;;;46.80;27.23;;;18.30;49.70;;;;;;5072984;28;20356;-79
2021/03/24 11:53:44;;;;;;;45.50;29.42;;;18.30;52.40;;;;;;5073135;28;20395;-79
2021/03/24 11:56:23;;;;;;;37.03;23.45;;;18.50;50.90;;;;;;5072736;28;20024;-78
2021/03/24 11:58:58;;;;;;;41.45;26.63;;;18.60;56.40;;;;;;5074288;28;20020;-79
2021/03/24 12:01:57;;;;;;;44.63;27.45;;;18.60;50.10;;;;;;5072607;28;20044;-79
2021/03/24 12:04:26;;;;;;;39.93;26.50;;;18.60;52.40;;;;;;5072947;28;20020;-80
2021/03/24 12:06:54;;;;;;;41.38;26.20;;;18.70;45.70;;;;;;5074315;28;20097;-78
2021/03/24 12:09:23;;;;;;;41.60;25.90;;;18.80;46.50;;;;;;5074194;28;20051;-79
2021/03/24 12:11:50;;;;;;;43.20;26.42;;;18.70;45.40;;;;;;5072385;28;20103;-79
2021/03/24 12:14:22;;;;;;;48.80;30.55;;;18.60;45.20;;;;;;5072470;28;20028;-79
2021/03/24 12:16:56;;;;;;;51.17;29.27;;;18.60;45.00;;;;;;5072196;28;20013;-79
2021/03/24 12:19:42;;;;;;;45.55;28.13;;;18.70;48.00;;;;;;5072174;28;20020;-79
2021/03/24 12:22:20;;;;;;;39.72;24.63;;;18.90;46.50;;;;;;5073652;28;20104;-78
2021/03/24 12:24:49;;;;;;;37.38;22.80;;;19.20;48.90;;;;;;5071904;28;20029;-78
2021/03/24 12:27:17;;;;;;;38.90;22.70;;;19.40;51.60;;;;;;5073591;28;20052;-78
2021/03/24 12:29:56;;;;;;;37.42;21.85;;;19.40;46.50;;;;;;5072005;28;20012;-78
2021/03/24 12:32:28;;;;;;;40.75;25.50;;;19.50;48.50;;;;;;5073408;28;20021;-79
2021/03/24 12:34:55;;;;;;;38.67;23.85;;;19.50;43.60;;;;;;5073245;28;20031;-79
2021/03/24 12:37:29;;;;;;;42.70;26.30;;;19.60;50.60;;;;;;5071736;28;20020;-78
2021/03/24 12:40:06;;;;;;;40.25;24.63;;;19.80;43.90;;;;;;5071993;28;20021;-78
2021/03/24 12:42:33;;;;;;;39.38;25.27;;;19.90;45.10;;;;;;5073315;28;20051;-78
2021/03/24 12:45:00;;;;;;;42.40;26.27;;;19.90;48.40;;;;;;5053497;28;20070;-80
2021/03/24 12:47:39;;;;;;;37.97;22.50;;;19.90;46.20;;;;;;5051822;28;20017;-80
2021/03/24 12:50:18;;;;;;;46.67;27.38;;;19.80;52.00;;;;;;5052795;28;20021;-79
2021/03/24 12:53:03;;;;;;;32.45;21.20;;;19.70;44.50;;;;;;5051793;28;20032;-80
2021/03/24 12:55:31;;;;;;;35.30;21.50;;;19.80;50.00;;;;;;5053456;28;20025;-78
2021/03/24 12:58:35;;;;;;;42.40;26.48;;;19.80;48.20;;;;;;5054923;28;20009;-78
2021/03/24 13:01:09;;;;;;;42.83;25.10;;;19.90;50.40;;;;;;5053975;28;20032;-78
2021/03/24 13:04:12;;;;;;;44.00;27.80;;;19.80;46.80;;;;;;5053384;28;20017;-79
2021/03/24 13:07:03;;;;;;;40.75;25.92;;;19.70;47.20;;;;;;5050897;28;20040;-79
2021/03/24 13:09:50;;;;;;;38.88;25.73;;;19.50;46.00;;;;;;5050940;28;20338;-80
2021/03/24 13:12:38;;;;;;;31.90;18.20;;;19.50;45.40;;;;;;5052483;28;20070;-80
2021/03/24 13:15:32;;;;;;;37.47;23.48;;;19.60;56.40;;;;;;5052446;28;20456;-79
2021/03/24 13:18:26;;;;;;;40.40;23.13;;;19.50;46.50;;;;;;5051294;28;20029;-80
2021/03/24 13:21:06;;;;;;;43.78;26.92;;;19.50;47.80;;;;;;5052544;28;20507;-80
2021/03/24 13:23:49;;;;;;;43.10;27.27;;;19.60;44.50;;;;;;5051073;28;20028;-80
2021/03/24 13:26:32;;;;;;;41.95;27.15;;;19.60;43.80;;;;;;5052507;28;20021;-79